createdAt,value
2023-03-15T00:02:22.309Z,96057.16
2023-03-15T00:05:26.878Z,96059.38
2023-03-15T00:08:33.286Z,96060.66
2023-03-15T00:11:37.802Z,96060.31
2023-03-15T00:14:42.326Z,96069.19
2023-03-15T00:17:47.136Z,96068.38
2023-03-15T00:20:51.903Z,96066.69
2023-03-15T00:23:57.542Z,96068.34
2023-03-15T00:27:02.096Z,96069.16
2023-03-15T00:30:08.259Z,96075.44
2023-03-15T00:33:13.793Z,96070.34
2023-03-15T00:36:18.731Z,96069.91
2023-03-15T00:39:25.685Z,96073.22
2023-03-15T00:42:30.381Z,96080.41
2023-03-15T00:45:35.015Z,96063.22
2023-03-15T00:48:41.268Z,96066.59
2023-03-15T00:51:46.838Z,96070.28
2023-03-15T00:54:55.810Z,96081.53
2023-03-15T00:58:00.455Z,96078.09
2023-03-15T01:01:12.696Z,96074.72
2023-03-15T01:04:17.242Z,96075.06
2023-03-15T01:07:21.835Z,96079.06
2023-03-15T01:10:26.366Z,96078.56
2023-03-15T01:13:30.922Z,96087.19
2023-03-15T01:16:36.190Z,96072.72
2023-03-15T01:19:40.704Z,96078.84
2023-03-15T01:22:45.304Z,96080.44
2023-03-15T01:25:52.182Z,96070.22
2023-03-15T01:28:57.350Z,96070.41
2023-03-15T01:32:04.259Z,96058.91
2023-03-15T01:35:09.088Z,96057.69
2023-03-15T01:38:13.888Z,96051.59
2023-03-15T01:41:19.960Z,96054.91
2023-03-15T01:44:24.869Z,96036.72
2023-03-15T01:47:29.702Z,96047.56
2023-03-15T01:50:36.041Z,96051.63
2023-03-15T01:53:43.613Z,96066.16
2023-03-15T01:56:57.801Z,96049.53
2023-03-15T02:00:12.111Z,96043.25
2023-03-15T02:03:34.932Z,96049.19
2023-03-15T02:06:39.828Z,96047.34
2023-03-15T02:09:53.946Z,96054.41
2023-03-15T02:12:59.488Z,96053.53
2023-03-15T02:16:06.755Z,96053.47
2023-03-15T02:20:01.768Z,96056.13
2023-03-15T02:23:12.977Z,96055.19
2023-03-15T02:26:28.931Z,96056.19
2023-03-15T02:29:36.299Z,96067.16
2023-03-15T02:32:42.863Z,96023.13
2023-03-15T02:35:47.492Z,96073.69
2023-03-15T02:38:52.858Z,96076.41
2023-03-15T02:41:58.923Z,96078.81
2023-03-15T02:45:06.431Z,96080.22
2023-03-15T02:48:13.259Z,96090.03
2023-03-15T02:51:23.279Z,96097.72
2023-03-15T02:54:28.710Z,96094.25
2023-03-15T02:57:33.262Z,96100.28
2023-03-15T03:00:39.350Z,96101.34
2023-03-15T03:03:46.944Z,96103.84
2023-03-15T03:06:52.024Z,96103.03
2023-03-15T03:10:00.683Z,96102.81
2023-03-15T03:13:07.695Z,96107.41
2023-03-15T03:16:15.593Z,96113.25
2023-03-15T03:19:25.469Z,96116.56
2023-03-15T03:22:30.233Z,96121.59
2023-03-15T03:25:36.575Z,96128.50
2023-03-15T03:28:41.609Z,96136.03
2023-03-15T03:31:46.496Z,96146.13
2023-03-15T03:34:52.432Z,96115.44
2023-03-15T03:37:59.630Z,96161.34
2023-03-15T03:41:11.511Z,96156.78
2023-03-15T03:44:17.037Z,96182.75
2023-03-15T03:47:22.786Z,96178.91
2023-03-15T03:50:28.046Z,96180.81
2023-03-15T03:53:32.632Z,96208.28
2023-03-15T03:56:37.852Z,96202.34
2023-03-15T03:59:42.931Z,96205.16
2023-03-15T04:02:48.116Z,96202.75
2023-03-15T04:05:55.293Z,96212.78
2023-03-15T04:09:04.073Z,96218.50
2023-03-15T04:12:16.624Z,96221.22
2023-03-15T04:15:24.627Z,96233.28
2023-03-15T04:18:29.578Z,96232.28
2023-03-15T04:21:34.474Z,96239.91
2023-03-15T04:25:02.301Z,96241.38
2023-03-15T04:28:30.204Z,96247.03
2023-03-15T04:31:44.465Z,96209.63
2023-03-15T04:35:09.561Z,96268.38
2023-03-15T04:38:34.428Z,96271.81
2023-03-15T04:41:50.089Z,96278.94
2023-03-15T04:45:17.962Z,96289.66
2023-03-15T04:48:37.982Z,96292.47
2023-03-15T04:52:21.022Z,96300.94
2023-03-15T04:55:57.096Z,96329.34
2023-03-15T04:59:32.021Z,96329.47
2023-03-15T05:02:59.446Z,96334.91
2023-03-15T05:06:30.515Z,96357.91
2023-03-15T05:09:55.199Z,96335.75
2023-03-15T05:13:21.352Z,96379.25
2023-03-15T05:16:44.210Z,96380.34
2023-03-15T05:19:55.308Z,96388.78
2023-03-15T05:23:18.661Z,96405.00
2023-03-15T05:26:46.365Z,96413.63
2023-03-15T05:30:12.102Z,96429.78
2023-03-15T05:33:34.835Z,96430.63
2023-03-15T05:36:51.804Z,96405.25
2023-03-15T05:39:56.467Z,96461.31
2023-03-15T05:43:19.286Z,96484.34
2023-03-15T05:46:31.925Z,96487.75
2023-03-15T05:49:48.071Z,96493.69
2023-03-15T05:53:01.880Z,96501.50
2023-03-15T05:56:12.767Z,96521.94
2023-03-15T05:59:47.543Z,96529.63
2023-03-15T06:03:18.179Z,96545.81
2023-03-15T06:06:33.934Z,96560.28
2023-03-15T06:09:40.694Z,96562.00
2023-03-15T06:12:45.490Z,96557.69
2023-03-15T06:15:50.285Z,96562.88
2023-03-15T06:18:56.982Z,96569.66
2023-03-15T06:22:03.627Z,96540.66
2023-03-15T06:25:15.613Z,96574.75
2023-03-15T06:28:20.379Z,96588.38
2023-03-15T06:31:31.490Z,96622.47
2023-03-15T06:34:42.167Z,96622.44
2023-03-15T06:37:47.284Z,96643.75
2023-03-15T06:40:53.198Z,96639.50
2023-03-15T06:43:57.805Z,96648.84
2023-03-15T06:47:02.885Z,96659.09
2023-03-15T06:50:09.252Z,96665.88
2023-03-15T06:53:14.186Z,96665.03
2023-03-15T06:56:18.882Z,96662.50
2023-03-15T06:59:24.074Z,96665.88
2023-03-15T07:02:30.495Z,96675.25
2023-03-15T07:05:35.086Z,96676.97
2023-03-15T07:08:41.363Z,96691.50
2023-03-15T07:11:45.890Z,96694.91
2023-03-15T07:14:50.374Z,96706.81
2023-03-15T07:17:55.004Z,96713.63
2023-03-15T07:21:00.850Z,96715.31
2023-03-15T07:24:05.623Z,96708.50
2023-03-15T07:27:15.400Z,96735.75
2023-03-15T07:30:21.305Z,96738.28
2023-03-15T07:33:27.677Z,96745.06
2023-03-15T07:36:32.274Z,96759.59
2023-03-15T07:39:36.901Z,96757.88
2023-03-15T07:42:42.157Z,96766.28
2023-03-15T07:45:46.817Z,96768.84
2023-03-15T07:48:52.509Z,96743.25
2023-03-15T07:51:58.396Z,96773.13
2023-03-15T07:55:04.758Z,96769.78
2023-03-15T07:58:09.858Z,96768.69
2023-03-15T08:01:14.394Z,96771.91
2023-03-15T08:04:19.004Z,96774.56
2023-03-15T08:07:23.572Z,96768.25
2023-03-15T08:10:28.448Z,96775.22
2023-03-15T08:13:33.836Z,96778.09
2023-03-15T08:16:38.461Z,96768.41
2023-03-15T08:19:43.641Z,96776.38
2023-03-15T08:22:49.910Z,96778.63
2023-03-15T08:25:54.444Z,96772.88
2023-03-15T08:28:59.029Z,96770.06
2023-03-15T08:32:03.820Z,96775.06
2023-03-15T08:35:09.302Z,96772.19
2023-03-15T08:38:14.415Z,96782.97
2023-03-15T08:41:18.948Z,96779.69
2023-03-15T08:44:24.556Z,96751.38
2023-03-15T08:47:29.162Z,96773.72
2023-03-15T08:50:33.883Z,96779.44
2023-03-15T08:53:38.367Z,96781.97
2023-03-15T08:56:42.936Z,96793.41
2023-03-15T08:59:47.497Z,96785.69
2023-03-15T09:02:52.301Z,96802.00
2023-03-15T09:05:57.747Z,96801.72
2023-03-15T09:09:02.289Z,96797.19
2023-03-15T09:12:07.096Z,96796.44
2023-03-15T09:15:12.360Z,96814.03
2023-03-15T09:18:17.617Z,96839.41
2023-03-15T09:21:22.138Z,96816.59
2023-03-15T09:24:26.761Z,96815.38
2023-03-15T09:27:31.826Z,96827.47
2023-03-15T09:30:38.243Z,96837.72
2023-03-15T09:33:46.607Z,96803.59
2023-03-15T09:36:53.050Z,96824.25
2023-03-15T09:39:57.762Z,96827.88
2023-03-15T09:43:04.391Z,96817.25
2023-03-15T09:46:40.714Z,96834.97
2023-03-15T09:50:13.120Z,96843.38
2023-03-15T09:53:28.375Z,96824.72
2023-03-15T09:56:40.277Z,96829.69
2023-03-15T09:59:49.120Z,96821.69
2023-03-15T10:03:03.705Z,96839.59
2023-03-15T10:06:23.622Z,96837.78
2023-03-15T10:09:33.663Z,96832.25
2023-03-15T10:12:41.990Z,96828.72
2023-03-15T10:16:02.233Z,96848.59
2023-03-15T10:19:15.770Z,96836.91
2023-03-15T10:22:40.712Z,96838.13
2023-03-15T10:25:46.521Z,96843.94
2023-03-15T10:28:52.872Z,96849.78
2023-03-15T10:31:58.277Z,96835.34
2023-03-15T10:35:09.642Z,96846.41
2023-03-15T10:38:21.782Z,96840.53
2023-03-15T10:41:29.066Z,96838.09
2023-03-15T10:44:37.597Z,96849.06
2023-03-15T10:47:50.426Z,96852.28
2023-03-15T10:50:57.936Z,96865.34
2023-03-15T10:54:22.748Z,96865.84
2023-03-15T10:57:33.292Z,96868.09
2023-03-15T11:00:37.773Z,96861.47
2023-03-15T11:03:44.900Z,96827.22
2023-03-15T11:07:13.375Z,96870.63
2023-03-15T11:10:23.298Z,96865.38
2023-03-15T11:13:32.634Z,96866.72
2023-03-15T11:16:37.851Z,96862.56
2023-03-15T11:19:48.959Z,96862.25
2023-03-15T11:22:54.030Z,96851.06
2023-03-15T11:25:58.554Z,96864.63
2023-03-15T11:29:23.183Z,96870.19
2023-03-15T11:32:31.760Z,96872.22
2023-03-15T11:35:48.127Z,96872.06
2023-03-15T11:38:55.595Z,96851.47
2023-03-15T11:42:06.549Z,96837.53
2023-03-15T11:45:18.821Z,96855.16
2023-03-15T11:48:44.483Z,96845.16
2023-03-15T11:51:49.599Z,96848.84
2023-03-15T11:55:00.133Z,96845.88
2023-03-15T11:58:27.428Z,96834.25
2023-03-15T12:01:34.449Z,96823.78
2023-03-15T12:04:40.305Z,96816.72
2023-03-15T12:07:59.765Z,96830.44
2023-03-15T12:11:12.111Z,96829.13
2023-03-15T12:14:29.055Z,96830.66
2023-03-15T12:17:44.160Z,96812.59
2023-03-15T12:21:08.428Z,96813.28
2023-03-15T12:24:37.513Z,96818.78
2023-03-15T12:27:52.866Z,96806.81
2023-03-15T12:31:01.720Z,96798.56
2023-03-15T12:34:07.867Z,96802.50
2023-03-15T12:37:31.631Z,96784.81
2023-03-15T12:40:48.888Z,96793.78
2023-03-15T12:43:53.511Z,96810.47
2023-03-15T12:47:10.224Z,96806.03
2023-03-15T12:50:45.693Z,96791.72
2023-03-15T12:53:52.105Z,96786.56
2023-03-15T12:57:00.732Z,96788.78
2023-03-15T13:00:12.855Z,96785.38
2023-03-15T13:03:26.774Z,96783.84
2023-03-15T13:07:07.552Z,96787.31
2023-03-15T13:10:53.098Z,96805.88
2023-03-15T13:14:36.316Z,96794.00
2023-03-15T13:17:57.867Z,96799.84
2023-03-15T13:21:18.233Z,96790.31
2023-03-15T13:24:35.810Z,96790.66
2023-03-15T13:28:03.695Z,96787.97
2023-03-15T13:31:22.476Z,96799.53
2023-03-15T13:34:31.234Z,96758.50
2023-03-15T13:37:41.750Z,96788.84
2023-03-15T13:40:46.903Z,96798.34
2023-03-15T13:43:53.819Z,96805.88
2023-03-15T13:46:59.602Z,96801.63
2023-03-15T13:50:05.880Z,96802.81
2023-03-15T13:53:25.383Z,96797.88
2023-03-15T13:57:05.125Z,96807.25
2023-03-15T14:00:13.539Z,96818.75
2023-03-15T14:03:25.033Z,96811.06
2023-03-15T14:06:30.043Z,96818.69
2023-03-15T14:09:36.551Z,96797.38
2023-03-15T14:12:41.067Z,96819.72
2023-03-15T14:15:47.112Z,96815.50
2023-03-15T14:18:52.856Z,96827.00
2023-03-15T14:21:59.999Z,96822.81
2023-03-15T14:25:18.775Z,96822.03
2023-03-15T14:28:24.720Z,96819.34
2023-03-15T14:31:34.678Z,96820.53
2023-03-15T14:34:47.460Z,96821.09
2023-03-15T14:38:21.325Z,96811.34
2023-03-15T14:41:31.320Z,96815.00
2023-03-15T14:44:35.938Z,96791.28
2023-03-15T14:47:56.361Z,96806.63
2023-03-15T14:51:03.187Z,96803.47
2023-03-15T14:54:10.629Z,96814.53
2023-03-15T14:57:15.157Z,96816.03
2023-03-15T15:00:20.693Z,96805.84
2023-03-15T15:03:40.810Z,96809.88
2023-03-15T15:06:52.621Z,96810.81
2023-03-15T15:09:57.077Z,96817.72
2023-03-15T15:13:06.828Z,96820.94
2023-03-15T15:16:11.870Z,96824.72
2023-03-15T15:19:16.508Z,96839.69
2023-03-15T15:22:21.455Z,96836.50
2023-03-15T15:25:28.317Z,96838.34
2023-03-15T15:28:36.920Z,96844.09
2023-03-15T15:31:42.751Z,96844.25
2023-03-15T15:34:47.257Z,96847.06
2023-03-15T15:37:52.291Z,96853.88
2023-03-15T15:40:56.869Z,96845.97
2023-03-15T15:44:01.908Z,96832.09
2023-03-15T15:47:06.589Z,96840.22
2023-03-15T15:50:16.435Z,96840.19
2023-03-15T15:53:20.949Z,96842.50
2023-03-15T15:56:44.033Z,96846.34
2023-03-15T15:59:50.128Z,96853.03
2023-03-15T16:02:56.926Z,96847.19
2023-03-15T16:06:01.444Z,96842.66
2023-03-15T16:09:08.319Z,96825.84
2023-03-15T16:12:17.773Z,96861.72
2023-03-15T16:15:22.385Z,96890.31
2023-03-15T16:18:27.007Z,96911.38
2023-03-15T16:21:41.304Z,96920.88
2023-03-15T16:24:50.754Z,96921.72
2023-03-15T16:27:56.439Z,96908.94
2023-03-15T16:31:01.890Z,96911.47
2023-03-15T16:34:15.131Z,96916.59
2023-03-15T16:37:31.180Z,96920.00
2023-03-15T16:40:40.962Z,96927.69
2023-03-15T16:43:48.594Z,96930.25
2023-03-15T16:46:53.763Z,96931.97
2023-03-15T16:49:58.372Z,96936.22
2023-03-15T16:53:07.305Z,96943.91
2023-03-15T16:56:14.362Z,96947.31
2023-03-15T16:59:18.867Z,96949.03
2023-03-15T17:02:26.012Z,96951.53
2023-03-15T17:05:32.232Z,96937.06
2023-03-15T17:08:37.098Z,96963.53
2023-03-15T17:11:44.538Z,96958.38
2023-03-15T17:14:49.536Z,96960.97
2023-03-15T17:17:57.437Z,96972.84
2023-03-15T17:21:02.287Z,96931.06
2023-03-15T17:24:11.484Z,96974.63
2023-03-15T17:27:22.273Z,96983.19
2023-03-15T17:30:32.287Z,96989.09
2023-03-15T17:33:36.993Z,96986.59
2023-03-15T17:36:41.688Z,96999.34
2023-03-15T17:39:48.305Z,96997.66
2023-03-15T17:42:54.519Z,97004.53
2023-03-15T17:45:59.079Z,97007.09
2023-03-15T17:49:06.034Z,97004.50
2023-03-15T17:52:18.401Z,97006.22
2023-03-15T17:55:25.182Z,97018.22
2023-03-15T17:58:29.646Z,97015.63
2023-03-15T18:01:35.448Z,97021.59
2023-03-15T18:04:40.056Z,97020.72
2023-03-15T18:07:57.824Z,97025.88
2023-03-15T18:11:03.015Z,97031.81
2023-03-15T18:14:12.112Z,97025.00
2023-03-15T18:17:16.687Z,97036.03
2023-03-15T18:20:23.753Z,97039.44
2023-03-15T18:23:29.460Z,97014.56
2023-03-15T18:26:34.050Z,97043.59
2023-03-15T18:29:38.587Z,97047.91
2023-03-15T18:32:43.253Z,97049.72
2023-03-15T18:35:47.814Z,97053.94
2023-03-15T18:38:52.481Z,97052.31
2023-03-15T18:41:56.982Z,97054.84
2023-03-15T18:45:01.515Z,97053.94
2023-03-15T18:48:06.534Z,97061.63
2023-03-15T18:51:15.335Z,97063.34
2023-03-15T18:54:19.971Z,97055.63
2023-03-15T18:57:24.443Z,97059.94
2023-03-15T19:00:32.642Z,97059.97
2023-03-15T19:03:37.245Z,97061.66
2023-03-15T19:06:41.898Z,97059.91
2023-03-15T19:09:46.374Z,97063.34
2023-03-15T19:12:53.356Z,97056.47
2023-03-15T19:15:58.273Z,97050.56
2023-03-15T19:19:03.614Z,97054.00
2023-03-15T19:22:08.206Z,97063.38
2023-03-15T19:25:13.932Z,97067.66
2023-03-15T19:28:18.606Z,97061.63
2023-03-15T19:31:23.486Z,97062.47
2023-03-15T19:34:29.305Z,97066.66
2023-03-15T19:37:34.142Z,97069.22
2023-03-15T19:40:38.611Z,97083.72
2023-03-15T19:43:43.544Z,97069.22
2023-03-15T19:46:48.303Z,97083.72
2023-03-15T19:49:52.867Z,97086.31
2023-03-15T19:52:57.993Z,97087.13
2023-03-15T19:56:07.166Z,97092.16
2023-03-15T19:59:11.786Z,97094.81
2023-03-15T20:02:16.640Z,97105.03
2023-03-15T20:05:21.737Z,97103.28
2023-03-15T20:08:26.445Z,97110.16
2023-03-15T20:11:31.073Z,97114.34
2023-03-15T20:14:35.644Z,97118.56
2023-03-15T20:17:40.882Z,97124.53
2023-03-15T20:20:45.468Z,97126.25
2023-03-15T20:23:50.069Z,97130.44
2023-03-15T20:26:54.711Z,97131.34
2023-03-15T20:29:59.701Z,97132.09
2023-03-15T20:33:04.295Z,97129.47
2023-03-15T20:36:09.206Z,97126.59
2023-03-15T20:39:15.035Z,97134.94
2023-03-15T20:42:20.736Z,97128.81
2023-03-15T20:45:25.353Z,97142.41
2023-03-15T20:48:32.156Z,97143.22
2023-03-15T20:51:36.684Z,97141.53
2023-03-15T20:54:41.160Z,97135.56
2023-03-15T20:57:45.707Z,97143.09
2023-03-15T21:00:50.719Z,97144.84
2023-03-15T21:03:56.232Z,97157.69
2023-03-15T21:07:04.166Z,97157.69
2023-03-15T21:10:10.577Z,97146.56
2023-03-15T21:13:16.620Z,97163.66
2023-03-15T21:16:21.191Z,97147.25
2023-03-15T21:19:25.693Z,97168.88
2023-03-15T21:22:30.526Z,97170.53
2023-03-15T21:25:35.247Z,97167.88
2023-03-15T21:28:40.732Z,97168.47
2023-03-15T21:31:45.296Z,97173.44
2023-03-15T21:34:49.851Z,97184.38
2023-03-15T21:37:56.290Z,97153.63
2023-03-15T21:41:05.361Z,97181.78
2023-03-15T21:44:11.455Z,97178.44
2023-03-15T21:47:17.866Z,97184.22
2023-03-15T21:50:23.127Z,97178.66
2023-03-15T21:53:29.445Z,97178.59
2023-03-15T21:56:33.936Z,97186.94
2023-03-15T21:59:41.597Z,97186.22
2023-03-15T22:02:47.266Z,97190.31
2023-03-15T22:05:52.689Z,97186.97
2023-03-15T22:08:57.359Z,97160.41
2023-03-15T22:12:01.892Z,97188.06
2023-03-15T22:15:07.616Z,97186.25
2023-03-15T22:18:12.324Z,97187.94
2023-03-15T22:21:16.848Z,97200.66
2023-03-15T22:24:21.381Z,97204.00
2023-03-15T22:27:25.932Z,97205.63
2023-03-15T22:30:31.394Z,97209.78
2023-03-15T22:33:35.971Z,97215.81
2023-03-15T22:36:42.608Z,97209.84
2023-03-15T22:39:47.919Z,97208.72
2023-03-15T22:42:54.571Z,97180.28
2023-03-15T22:45:59.387Z,97209.50
2023-03-15T22:49:03.935Z,97215.84
2023-03-15T22:52:08.521Z,97217.34
2023-03-15T22:55:13.477Z,97220.97
2023-03-15T22:58:17.950Z,97218.84
2023-03-15T23:01:22.542Z,97232.41
2023-03-15T23:04:28.276Z,97223.19
2023-03-15T23:07:33.390Z,97226.91
2023-03-15T23:10:37.979Z,97240.00
2023-03-15T23:13:42.575Z,97240.03
2023-03-15T23:16:47.118Z,97255.53
2023-03-15T23:19:51.936Z,97263.19
2023-03-15T23:22:56.634Z,97256.94
2023-03-15T23:26:02.261Z,97259.28
2023-03-15T23:29:10.646Z,97254.44
2023-03-15T23:32:15.206Z,97260.72
2023-03-15T23:35:19.739Z,97255.22
2023-03-15T23:38:24.347Z,97258.13
2023-03-15T23:41:30.505Z,97216.78
2023-03-15T23:44:35.042Z,97262.31
2023-03-15T23:47:40.125Z,97270.84
2023-03-15T23:50:44.609Z,97263.25
2023-03-15T23:53:49.172Z,97271.69
2023-03-15T23:56:55.296Z,97265.66
2023-03-15T23:59:59.769Z,97261.25
